Time;durP1;ratioP1;P1;durP2;ratioP2;P2;SDS_P1;SDS_P2;PMS_P1;PMS_P2;Temp;Humidity;BMP_temperature;BMP_pressure;BME280_temperature;BME280_humidity;BME280_pressure;Samples;Min_cycle;Max_cycle;Signal;HPM_P1;HPM_P2
2022/07/18 00:01:21;;;;;;;10.57;3.50;;;;;;;9.76;77.15;99783.52;2180670;81;20901;-79
2022/07/18 00:04:21;;;;;;;8.47;3.17;;;;;;;9.74;77.02;99785.20;2180060;81;20991;-78
2022/07/18 00:07:22;;;;;;;7.70;3.50;;;;;;;9.71;77.13;99790.31;2180211;82;20917;-79
2022/07/18 00:10:22;;;;;;;4.87;3.00;;;;;;;9.68;77.40;99788.92;2180356;81;20937;-80
2022/07/18 00:13:23;;;;;;;9.57;3.10;;;;;;;9.67;77.42;99785.84;2180371;81;20932;-79
2022/07/18 00:16:23;;;;;;;5.73;3.47;;;;;;;9.67;77.43;99789.34;2187076;81;21348;-80
2022/07/18 00:19:23;;;;;;;3.90;3.50;;;;;;;9.66;77.47;99784.96;2187294;81;20905;-79
2022/07/18 00:22:24;;;;;;;5.03;3.60;;;;;;;9.64;77.46;99784.03;2172678;81;20944;-79
2022/07/18 00:25:24;;;;;;;4.83;3.00;;;;;;;9.63;77.51;99783.56;2171492;81;21301;-79
2022/07/18 00:28:25;;;;;;;5.97;3.17;;;;;;;9.62;77.55;99785.70;2171207;81;20886;-80
2022/07/18 00:31:25;;;;;;;5.17;3.37;;;;;;;9.58;77.76;99784.73;2171195;81;20926;-79
2022/07/18 00:34:26;;;;;;;4.73;3.10;;;;;;;9.55;77.77;99786.36;2171429;81;21435;-79
2022/07/18 00:37:26;;;;;;;6.13;3.20;;;;;;;9.51;77.83;99782.73;2170961;81;20957;-79
2022/07/18 00:40:26;;;;;;;4.80;3.20;;;;;;;9.50;78.04;99784.00;2170958;81;20902;-80
2022/07/18 00:43:27;;;;;;;5.63;2.73;;;;;;;9.49;77.85;99786.13;2180328;81;20936;-79
2022/07/18 00:46:27;;;;;;;5.77;3.00;;;;;;;9.46;77.91;99777.80;2180236;81;21289;-79
2022/07/18 00:49:28;;;;;;;7.60;3.37;;;;;;;9.43;77.89;99775.10;2179948;81;20932;-80
2022/07/18 00:52:28;;;;;;;6.43;2.90;;;;;;;9.41;78.19;99771.98;2180496;81;20901;-79
2022/07/18 00:55:28;;;;;;;6.40;3.40;;;;;;;9.39;78.32;99775.84;2180501;81;21324;-80
2022/07/18 00:58:29;;;;;;;3.93;2.87;;;;;;;9.38;78.36;99778.41;2180535;81;20948;-80
2022/07/18 01:01:47;;;;;;;5.70;3.13;;;;;;;9.37;78.37;99776.22;2180537;81;20916;-79
2022/07/18 01:04:44;;;;;;;7.97;3.43;;;;;;;9.34;78.37;99773.52;2181082;82;20964;-81
2022/07/18 01:07:45;;;;;;;5.27;2.90;;;;;;;9.35;79.07;99776.59;2180273;81;21253;-79
2022/07/18 01:10:45;;;;;;;17.80;3.60;;;;;;;9.35;78.95;99777.00;2180504;81;20913;-79
2022/07/18 01:13:46;;;;;;;7.03;3.30;;;;;;;9.33;79.28;99770.44;2180182;81;20909;-79
2022/07/18 01:16:46;;;;;;;4.00;3.20;;;;;;;9.34;79.04;99772.21;2170271;81;20944;-79
2022/07/18 01:19:46;;;;;;;27.20;5.07;;;;;;;9.28;79.07;99770.72;2171266;81;21289;-79
2022/07/18 01:22:47;;;;;;;4.67;3.60;;;;;;;9.23;79.23;99772.29;2172502;81;20921;-80
2022/07/18 01:25:47;;;;;;;3.73;2.90;;;;;;;9.22;79.31;99769.22;2172653;81;20968;-79
2022/07/18 01:28:48;;;;;;;6.33;3.13;;;;;;;9.19;79.18;99763.49;2171729;82;20921;-79
2022/07/18 01:31:48;;;;;;;9.03;3.53;;;;;;;9.17;79.22;99772.09;2172584;81;21308;-79
2022/07/18 01:34:48;;;;;;;7.87;3.87;;;;;;;9.18;79.42;99764.75;2173413;81;20992;-78
2022/07/18 01:37:49;;;;;;;5.30;2.90;;;;;;;9.15;79.55;99761.62;2170642;81;20949;-80
2022/07/18 01:40:50;;;;;;;4.80;3.20;;;;;;;9.12;79.66;99773.67;2172521;81;20949;-79
2022/07/18 01:43:50;;;;;;;8.03;3.03;;;;;;;9.10;79.65;99771.43;2171642;81;20909;-79
2022/07/18 01:46:51;;;;;;;7.80;3.17;;;;;;;9.07;79.74;99771.33;2172470;81;20961;-79
2022/07/18 01:49:50;;;;;;;4.07;3.20;;;;;;;9.03;79.80;99769.46;2170851;81;20925;-79
2022/07/18 01:52:51;;;;;;;5.20;3.00;;;;;;;9.01;79.83;99772.44;2171593;81;21292;-79
2022/07/18 01:55:51;;;;;;;3.40;2.70;;;;;;;8.95;79.81;99773.13;2172743;81;20941;-79
2022/07/18 01:58:52;;;;;;;6.53;3.03;;;;;;;8.94;79.76;99770.05;2170774;81;20925;-79
2022/07/18 02:01:52;;;;;;;4.03;2.53;;;;;;;8.93;79.61;99767.86;2170915;81;21284;-78
2022/07/18 02:04:59;;;;;;;7.43;2.77;;;;;;;8.93;79.51;99765.26;2172565;81;21327;-79
2022/07/18 02:07:59;;;;;;;4.53;2.63;;;;;;;8.85;79.38;99765.84;2170545;82;21336;-79
2022/07/18 02:10:59;;;;;;;20.73;3.40;;;;;;;8.79;79.39;99772.14;2171179;81;20913;-78
2022/07/18 02:14:00;;;;;;;5.27;2.87;;;;;;;8.74;79.64;99774.59;2171697;81;20985;-80
2022/07/18 02:17:00;;;;;;;4.10;2.77;;;;;;;8.73;79.72;99775.84;2174228;81;21261;-79
2022/07/18 02:20:01;;;;;;;6.47;2.90;;;;;;;8.71;79.54;99774.48;2173472;81;20941;-79
2022/07/18 02:23:01;;;;;;;7.77;2.97;;;;;;;8.70;79.71;99774.02;2173754;81;20925;-79
2022/07/18 02:26:04;;;;;;;3.37;2.40;;;;;;;8.68;79.60;99779.59;2173724;82;20929;-79
2022/07/18 02:29:05;;;;;;;3.90;2.70;;;;;;;8.60;79.25;99784.50;2173814;81;21320;-79
2022/07/18 02:32:05;;;;;;;5.80;2.90;;;;;;;8.54;79.28;99779.50;2173819;81;20921;-79
2022/07/18 02:35:05;;;;;;;115.87;9.70;;;;;;;8.50;79.42;99777.20;2172979;81;20965;-77
2022/07/18 02:38:06;;;;;;;9.23;3.40;;;;;;;8.50;79.66;99777.63;2173268;81;20901;-80
2022/07/18 02:41:06;;;;;;;52.60;19.03;;;;;;;8.55;79.82;99778.67;2173579;81;20933;-79
2022/07/18 02:44:07;;;;;;;10.30;6.90;;;;;;;8.57;79.71;99786.11;2173008;81;20941;-78
2022/07/18 02:47:07;;;;;;;8.83;4.10;;;;;;;8.55;79.47;99787.77;2173113;81;20881;-78
2022/07/18 02:50:07;;;;;;;8.13;3.37;;;;;;;8.56;79.63;99787.83;2173365;81;20897;-79
2022/07/18 02:53:08;;;;;;;5.30;3.27;;;;;;;8.56;79.56;99795.64;2173594;81;20912;-78
2022/07/18 02:56:08;;;;;;;7.10;3.37;;;;;;;8.53;79.43;99792.04;2173564;81;21312;-78
2022/07/18 02:59:09;;;;;;;4.20;3.00;;;;;;;8.50;79.45;99786.73;2173516;81;20913;-79
2022/07/18 03:02:09;;;;;;;4.97;3.20;;;;;;;8.52;79.66;99792.88;2173788;81;20901;-79
2022/07/18 03:05:09;;;;;;;7.23;3.43;;;;;;;8.55;79.70;99792.98;2173208;81;21387;-79
2022/07/18 03:08:10;;;;;;;8.17;3.30;;;;;;;8.55;79.72;99793.87;2173603;81;20917;-79
2022/07/18 03:11:10;;;;;;;5.43;3.00;;;;;;;8.58;79.96;99789.18;2173843;81;20913;-80
2022/07/18 03:14:11;;;;;;;9.10;3.60;;;;;;;8.59;79.71;99789.66;2173617;81;20925;-79
2022/07/18 03:17:11;;;;;;;6.97;3.20;;;;;;;8.61;79.93;99790.59;2167522;81;21328;-79
2022/07/18 03:20:11;;;;;;;6.67;3.07;;;;;;;8.69;79.88;99795.67;2171123;82;20929;-79
2022/07/18 03:23:12;;;;;;;8.13;3.30;;;;;;;8.71;79.80;99801.82;2171084;81;20970;-79
2022/07/18 03:26:12;;;;;;;3.40;3.10;;;;;;;8.75;79.83;99801.51;2171479;80;21305;-79
2022/07/18 03:29:13;;;;;;;10.40;3.27;;;;;;;8.76;79.88;99803.28;2171417;81;20964;-79
2022/07/18 03:32:13;;;;;;;3.53;3.03;;;;;;;8.80;80.00;99804.73;2171663;81;20956;-78
2022/07/18 03:35:13;;;;;;;17.87;4.90;;;;;;;8.88;79.96;99807.59;2170386;81;21330;-79
2022/07/18 03:38:14;;;;;;;6.30;3.20;;;;;;;8.92;80.23;99806.45;2171006;81;20941;-79
2022/07/18 03:41:14;;;;;;;7.97;3.83;;;;;;;8.98;80.14;99806.19;2171218;81;20980;-80
2022/07/18 03:44:15;;;;;;;6.13;3.27;;;;;;;9.04;80.28;99802.06;2171717;81;20933;-80
2022/07/18 03:47:15;;;;;;;4.07;3.03;;;;;;;9.11;80.15;99805.76;2171335;81;20905;-78
2022/07/18 03:50:15;;;;;;;44.57;4.50;;;;;;;9.17;80.07;99808.14;2170772;81;20917;-80
2022/07/18 03:53:16;;;;;;;15.87;4.00;;;;;;;9.24;80.22;99802.30;2170431;80;21352;-80
2022/07/18 03:56:16;;;;;;;6.93;3.60;;;;;;;9.36;80.33;99803.11;2169930;81;20969;-78
2022/07/18 03:59:17;;;;;;;5.27;2.70;;;;;;;9.43;80.15;99799.86;2170471;81;20897;-79
2022/07/18 04:02:17;;;;;;;7.80;3.60;;;;;;;9.51;80.13;99796.19;2169311;81;21377;-77
2022/07/18 04:05:18;;;;;;;5.37;3.33;;;;;;;9.62;80.76;99802.66;2170189;81;20968;-79
2022/07/18 04:08:18;;;;;;;6.73;3.60;;;;;;;9.72;80.44;99799.48;2171007;81;20889;-79
2022/07/18 04:11:23;;;;;;;6.27;3.37;;;;;;;9.81;80.37;99805.39;2171647;81;20902;-81
2022/07/18 04:14:19;;;;;;;41.00;4.77;;;;;;;9.92;80.46;99807.02;2171288;80;20916;-79
2022/07/18 04:17:19;;;;;;;70.93;7.73;;;;;;;10.05;80.53;99808.73;2171150;81;21344;-77
2022/07/18 04:20:20;;;;;;;8.57;3.43;;;;;;;10.28;80.84;99813.75;2170490;81;20930;-78
2022/07/18 04:23:20;;;;;;;5.77;3.20;;;;;;;10.48;80.85;99806.98;2171044;81;20917;-79
2022/07/18 04:26:20;;;;;;;6.50;3.70;;;;;;;10.67;80.74;99813.58;2170595;81;20926;-79
2022/07/18 04:29:21;;;;;;;6.67;3.50;;;;;;;10.85;80.65;99806.23;2170570;81;20957;-78
2022/07/18 04:32:21;;;;;;;10.13;3.40;;;;;;;11.09;80.53;99815.11;2170152;81;20964;-79
2022/07/18 04:35:22;;;;;;;14.20;3.43;;;;;;;11.43;80.73;99809.42;2169670;82;21012;-78
2022/07/18 04:38:22;;;;;;;11.07;4.40;;;;;;;11.79;81.04;99813.34;2170067;81;20936;-80
2022/07/18 04:41:24;;;;;;;7.30;3.27;;;;;;;12.11;79.93;99808.38;2169892;82;20921;-78
2022/07/18 04:44:23;;;;;;;14.53;4.50;;;;;;;12.42;79.80;99800.75;2170099;81;21043;-79
2022/07/18 04:47:23;;;;;;;29.85;4.40;;;;;;;12.64;79.30;99802.05;2169504;81;21286;-81
2022/07/18 04:50:24;;;;;;;145.70;12.45;;;;;;;12.82;79.06;99804.55;2170662;81;20933;-81
2022/07/18 04:53:24;;;;;;;60.45;7.03;;;;;;;13.00;78.85;99802.25;2171161;81;20921;-82
2022/07/18 04:56:24;;;;;;;31.57;6.08;;;;;;;13.22;78.46;99797.00;2171274;81;20909;-81
2022/07/18 04:59:25;;;;;;;20.80;5.00;;;;;;;13.51;78.17;99796.15;2170157;81;21364;-81
2022/07/18 05:02:25;;;;;;;15.58;5.15;;;;;;;13.83;77.72;99800.12;2169966;81;20909;-81
2022/07/18 05:05:27;;;;;;;11.78;4.70;;;;;;;14.23;77.24;99797.61;2160491;82;21009;-79
2022/07/18 05:08:28;;;;;;;9.65;4.40;;;;;;;14.57;75.49;99799.34;2168902;81;20921;-80
2022/07/18 05:11:28;;;;;;;11.40;4.33;;;;;;;14.86;73.21;99787.42;2168465;81;20948;-81
2022/07/18 05:14:29;;;;;;;12.07;4.58;;;;;;;15.13;70.93;99784.59;2168930;81;21317;-79
2022/07/18 05:17:29;;;;;;;10.23;4.00;;;;;;;15.46;70.34;99787.48;2168945;81;20997;-80
2022/07/18 05:20:30;;;;;;;29.30;6.70;;;;;;;15.72;69.43;99778.95;2169979;82;20949;-81
2022/07/18 05:23:30;;;;;;;10.98;4.28;;;;;;;16.00;67.79;99782.61;2170005;81;20941;-80
2022/07/18 05:26:31;;;;;;;110.48;12.30;;;;;;;16.29;66.87;99786.68;2169525;81;20905;-81
2022/07/18 05:29:31;;;;;;;16.93;4.40;;;;;;;16.55;65.79;99788.55;2170054;81;20917;-81
2022/07/18 05:32:32;;;;;;;9.33;4.60;;;;;;;16.77;65.73;99782.05;2169771;81;20953;-79
2022/07/18 05:35:32;;;;;;;6.45;4.35;;;;;;;16.97;63.90;99782.08;2170399;81;21028;-80
2022/07/18 05:38:33;;;;;;;321.95;19.87;;;;;;;17.17;62.80;99789.12;2169778;81;20901;-78
2022/07/18 05:41:33;;;;;;;21.33;5.10;;;;;;;17.36;62.21;99797.06;2170333;81;21364;-80
2022/07/18 05:44:33;;;;;;;6.50;3.58;;;;;;;17.55;61.18;99790.02;2170412;81;20964;-80
2022/07/18 05:47:34;;;;;;;11.83;4.25;;;;;;;17.64;59.82;99797.92;2169852;82;20944;-79
2022/07/18 05:50:34;;;;;;;9.38;4.33;;;;;;;17.70;59.61;99797.94;2169309;81;21313;-81
2022/07/18 05:53:34;;;;;;;6.40;4.22;;;;;;;17.77;59.39;99793.97;2170365;81;20945;-80
2022/07/18 05:56:35;;;;;;;11.08;4.12;;;;;;;17.89;59.20;99791.73;2170115;81;20913;-79
2022/07/18 05:59:39;;;;;;;9.78;4.28;;;;;;;18.03;59.06;99791.69;2170770;81;20960;-80
2022/07/18 06:02:39;;;;;;;7.67;4.08;;;;;;;18.22;58.95;99788.13;2137315;82;20925;-81
2022/07/18 06:05:40;;;;;;;9.80;3.83;;;;;;;18.36;58.06;99789.39;2171064;81;21008;-78
2022/07/18 06:08:40;;;;;;;8.55;3.95;;;;;;;18.40;57.84;99789.81;2170265;82;20905;-79
2022/07/18 06:11:41;;;;;;;7.78;3.87;;;;;;;18.58;57.97;99791.05;2169813;82;20898;-81
2022/07/18 06:14:41;;;;;;;8.28;3.30;;;;;;;18.74;56.60;99794.52;2169794;80;20957;-80
2022/07/18 06:17:42;;;;;;;10.65;3.50;;;;;;;18.60;56.79;99792.36;2170386;81;20969;-80
2022/07/18 06:20:42;;;;;;;7.25;3.65;;;;;;;18.55;57.10;99797.67;2169807;81;20913;-79
2022/07/18 06:23:42;;;;;;;20.77;4.83;;;;;;;18.72;56.64;99798.93;2168890;81;21333;-78
2022/07/18 06:26:43;;;;;;;8.10;3.55;;;;;;;18.72;56.52;99797.16;2169132;81;20921;-81
2022/07/18 06:29:43;;;;;;;9.83;3.75;;;;;;;18.87;56.29;99804.13;2170598;81;20929;-79
2022/07/18 06:32:44;;;;;;;9.80;3.77;;;;;;;18.99;56.60;99794.78;2169804;81;20964;-80
2022/07/18 06:35:50;;;;;;;10.20;3.50;;;;;;;19.31;55.64;99798.98;2169550;82;20960;-81
2022/07/18 06:38:51;;;;;;;7.58;4.47;;;;;;;19.58;55.88;99800.09;2169891;82;21358;-80
2022/07/18 06:41:51;;;;;;;6.15;3.12;;;;;;;19.81;54.88;99801.63;2169085;81;20945;-79
2022/07/18 06:44:52;;;;;;;7.35;3.45;;;;;;;19.95;54.46;99800.63;2169778;81;20937;-79
2022/07/18 06:47:52;;;;;;;7.70;3.30;;;;;;;20.03;53.46;99805.84;2168674;81;21322;-79
2022/07/18 06:50:52;;;;;;;5.37;3.20;;;;;;;20.11;53.56;99805.31;2169598;81;20921;-79
2022/07/18 06:53:53;;;;;;;5.30;3.02;;;;;;;20.40;53.70;99808.97;2170180;81;20921;-80
2022/07/18 06:56:53;;;;;;;5.53;3.00;;;;;;;20.61;52.75;99806.03;2169944;81;20913;-79
2022/07/18 06:59:54;;;;;;;9.80;3.65;;;;;;;20.76;52.22;99805.39;2169982;81;20925;-80
2022/07/18 07:02:54;;;;;;;5.15;2.72;;;;;;;20.84;52.51;99800.44;2171416;81;20929;-80
2022/07/18 07:05:54;;;;;;;4.58;2.70;;;;;;;21.03;51.28;99800.16;2169921;81;20945;-82
2022/07/18 07:08:55;;;;;;;6.83;3.10;;;;;;;21.32;51.16;99800.60;2169914;81;20894;-79
2022/07/18 07:11:55;;;;;;;5.42;2.80;;;;;;;21.33;49.28;99800.16;2170307;81;20914;-81
2022/07/18 07:14:56;;;;;;;7.60;2.60;;;;;;;21.44;50.16;99795.53;2170943;81;20948;-80
2022/07/18 07:17:56;;;;;;;12.18;2.83;;;;;;;21.63;48.81;99800.50;2170184;81;21001;-81
2022/07/18 07:20:57;;;;;;;6.08;2.50;;;;;;;21.74;48.59;99795.47;2169623;81;20944;-80
2022/07/18 07:23:57;;;;;;;5.85;2.40;;;;;;;21.81;47.76;99796.66;2169412;81;20953;-79
2022/07/18 07:26:57;;;;;;;3.77;2.22;;;;;;;21.79;47.32;99797.14;2169361;80;20913;-80
2022/07/18 07:29:58;;;;;;;5.50;2.37;;;;;;;21.84;47.53;99798.39;2170448;81;20909;-79
2022/07/18 07:32:58;;;;;;;6.42;2.85;;;;;;;21.79;47.07;99792.28;2168747;82;20925;-80
2022/07/18 07:35:58;;;;;;;8.63;3.00;;;;;;;22.08;49.21;99793.08;2168462;81;21395;-78
2022/07/18 07:38:59;;;;;;;4.15;2.47;;;;;;;22.04;46.93;99791.39;2168990;81;20969;-78
2022/07/18 07:41:59;;;;;;;4.35;2.20;;;;;;;21.81;47.13;99799.77;2169607;82;20929;-77
2022/07/18 07:45:00;;;;;;;4.80;2.40;;;;;;;22.00;45.84;99799.84;2169709;81;21332;-78
2022/07/18 07:48:00;;;;;;;4.72;2.33;;;;;;;21.85;46.08;99793.50;2169345;82;20933;-79
2022/07/18 07:51:03;;;;;;;10.10;2.70;;;;;;;21.92;46.82;99788.48;2169316;81;20913;-79
2022/07/18 07:54:01;;;;;;;4.67;2.45;;;;;;;22.21;44.04;99792.80;2169062;81;21593;-78
2022/07/18 07:57:01;;;;;;;5.20;2.37;;;;;;;22.01;43.96;99789.64;2169499;81;21342;-79
2022/07/18 08:00:02;;;;;;;2.80;2.10;;;;;;;21.76;43.75;99787.02;2169555;81;20901;-78
2022/07/18 08:03:02;;;;;;;8.75;2.70;;;;;;;21.77;44.12;99790.11;2168325;81;20917;-78
2022/07/18 08:06:03;;;;;;;5.37;2.37;;;;;;;21.79;43.68;99783.86;2168026;81;20991;-78
2022/07/18 08:09:03;;;;;;;6.22;2.30;;;;;;;22.27;43.76;99786.94;2167329;81;20972;-77
2022/07/18 08:12:03;;;;;;;2.90;2.20;;;;;;;22.14;41.94;99777.88;2167763;81;20917;-79
2022/07/18 08:15:04;;;;;;;7.03;4.60;;;;;;;22.33;42.67;99781.49;2168309;82;20890;-78
2022/07/18 08:18:04;;;;;;;4.78;2.67;;;;;;;22.30;39.80;99781.56;2170601;81;20969;-80
2022/07/18 08:21:05;;;;;;;3.87;2.50;;;;;;;22.09;41.01;99779.76;2171487;81;20950;-78
2022/07/18 08:24:05;;;;;;;4.67;2.75;;;;;;;22.33;42.16;99779.70;2171975;81;20972;-77
2022/07/18 08:27:06;;;;;;;3.10;2.70;;;;;;;22.71;42.56;99780.23;2171874;81;20917;-78
2022/07/18 08:30:06;;;;;;;3.30;2.40;;;;;;;23.03;41.71;99778.64;2172192;81;21589;-80
2022/07/18 08:33:06;;;;;;;25.85;3.90;;;;;;;23.57;40.35;99775.58;2171853;81;20914;-78
2022/07/18 08:36:08;;;;;;;6.12;2.62;;;;;;;23.37;39.85;99777.35;2171504;81;20969;-77
2022/07/18 08:39:07;;;;;;;4.00;2.40;;;;;;;22.99;40.76;99771.64;2170957;82;20921;-78
2022/07/18 08:42:08;;;;;;;7.37;2.58;;;;;;;22.91;39.42;99771.82;2172665;81;21511;-77
2022/07/18 08:45:08;;;;;;;5.08;2.45;;;;;;;22.95;40.26;99765.97;2170863;81;20905;-77
2022/07/18 08:48:08;;;;;;;5.78;2.22;;;;;;;23.34;40.53;99762.33;2170730;81;21028;-77
2022/07/18 08:51:09;;;;;;;56.58;5.17;;;;;;;23.75;40.31;99764.42;2170993;81;21328;-77
2022/07/18 08:54:09;;;;;;;3.45;2.12;;;;;;;23.65;39.79;99767.80;2170392;82;20925;-78
2022/07/18 08:57:09;;;;;;;3.60;2.20;;;;;;;23.32;39.06;99784.12;2170840;81;20941;-77
2022/07/18 09:00:10;;;;;;;3.72;2.58;;;;;;;23.00;38.89;99772.94;2171497;81;20968;-78
2022/07/18 09:03:10;;;;;;;2.80;2.40;;;;;;;22.89;39.42;99772.31;2172098;81;20921;-79
2022/07/18 09:06:11;;;;;;;3.37;2.30;;;;;;;22.86;39.76;99780.37;2170962;81;21420;-79
2022/07/18 09:09:11;;;;;;;3.58;2.22;;;;;;;23.26;39.76;99784.28;2170821;81;20906;-78
2022/07/18 09:12:11;;;;;;;5.12;2.50;;;;;;;23.85;40.00;99772.58;2169970;81;21017;-79
2022/07/18 09:15:15;;;;;;;6.22;2.60;;;;;;;24.10;39.28;99779.44;2170659;81;21324;-78
2022/07/18 09:18:12;;;;;;;3.42;2.22;;;;;;;24.34;39.38;99771.25;2170338;81;20960;-78
2022/07/18 09:21:13;;;;;;;9.20;2.65;;;;;;;24.64;38.26;99781.01;2170936;81;20925;-78
2022/07/18 09:24:15;;;;;;;3.92;2.17;;;;;;;24.38;38.58;99775.13;2171137;81;20992;-79
2022/07/18 09:27:14;;;;;;;3.30;2.67;;;;;;;24.15;37.36;99772.19;2172701;81;20963;-79
2022/07/18 09:30:17;;;;;;;2.27;1.82;;;;;;;24.17;36.90;99773.47;2172110;81;20925;-78
2022/07/18 09:33:20;;;;;;;5.72;2.10;;;;;;;24.21;37.73;99768.00;2171964;81;20913;-80
2022/07/18 09:36:18;;;;;;;3.80;2.10;;;;;;;24.09;37.49;99770.56;2171771;82;21000;-80
2022/07/18 09:39:19;;;;;;;3.90;2.27;;;;;;;24.07;39.28;99769.73;2171011;82;20889;-78
2022/07/18 09:42:18;;;;;;;4.58;2.35;;;;;;;24.49;38.22;99760.13;2169955;81;21328;-79
2022/07/18 09:45:19;;;;;;;3.08;2.40;;;;;;;24.65;37.25;99764.53;2170038;81;21012;-79
2022/07/18 09:48:19;;;;;;;2.47;1.95;;;;;;;24.41;37.26;99761.69;2169999;81;20917;-80
2022/07/18 09:51:20;;;;;;;7.03;2.17;;;;;;;24.50;37.93;99752.53;2170088;81;20923;-79
2022/07/18 09:54:20;;;;;;;3.08;2.10;;;;;;;24.38;37.08;99764.91;2170208;81;20937;-79
2022/07/18 09:57:20;;;;;;;3.05;2.10;;;;;;;24.24;37.63;99752.37;2171151;81;20921;-79
2022/07/18 10:00:21;;;;;;;4.08;2.00;;;;;;;24.36;37.29;99759.62;2171602;81;21436;-79
2022/07/18 10:03:21;;;;;;;4.00;2.12;;;;;;;24.60;38.33;99755.80;2171600;81;20929;-78
2022/07/18 10:06:22;;;;;;;5.42;2.35;;;;;;;25.12;36.67;99752.36;2171710;81;20941;-78
2022/07/18 10:09:22;;;;;;;5.05;2.10;;;;;;;25.18;37.10;99753.53;2172116;81;20985;-78
2022/07/18 10:12:22;;;;;;;2.42;2.22;;;;;;;25.39;37.12;99747.45;2171752;81;20916;-78
2022/07/18 10:15:23;;;;;;;5.10;2.20;;;;;;;25.44;36.64;99753.98;2171750;81;20925;-79
2022/07/18 10:18:23;;;;;;;3.80;2.10;;;;;;;25.45;36.47;99751.72;2169874;81;20981;-79
2022/07/18 10:21:24;;;;;;;4.87;2.15;;;;;;;25.52;35.70;99753.25;2169944;81;20953;-80
2022/07/18 10:24:24;;;;;;;2.90;2.00;;;;;;;25.18;35.58;99754.86;2170254;81;20917;-79
2022/07/18 10:27:25;;;;;;;3.22;2.20;;;;;;;25.11;35.49;99755.95;2170038;81;20910;-80
2022/07/18 10:30:25;;;;;;;;;;;;;;;;;;;;;
2022/07/18 10:33:25;;;;;;;2.02;1.55;;;;;;;25.39;36.69;99743.91;2170081;81;21640;-79
2022/07/18 10:36:26;;;;;;;2.55;1.87;;;;;;;25.37;34.90;99754.66;2169949;81;20961;-78
2022/07/18 10:39:29;;;;;;;5.87;2.42;;;;;;;25.27;35.77;99747.88;2170680;81;20940;-79
2022/07/18 10:42:30;;;;;;;;;;;;;;;25.58;35.15;99745.02;2172643;81;20928;-79
2022/07/18 10:45:30;;;;;;;4.00;2.00;;;;;;;25.60;34.68;99744.50;2170240;82;20081;-80
2022/07/18 10:48:30;;;;;;;2.50;1.87;;;;;;;25.19;35.83;99745.05;2170026;82;20902;-78
2022/07/18 10:51:34;;;;;;;34.43;3.10;;;;;;;25.05;36.41;99741.47;2169694;82;20923;-78
2022/07/18 10:54:34;;;;;;;2.77;1.90;;;;;;;25.09;35.90;99746.66;2169295;81;20921;-79
2022/07/18 10:57:34;;;;;;;7.17;1.90;;;;;;;25.22;34.99;99746.28;2168226;81;21674;-78
2022/07/18 11:00:35;;;;;;;2.98;2.05;;;;;;;25.59;36.31;99743.22;2167797;81;20885;-78
2022/07/18 11:03:35;;;;;;;2.33;1.85;;;;;;;26.01;36.27;99731.50;2168812;81;20933;-79
2022/07/18 11:06:36;;;;;;;4.78;2.08;;;;;;;26.44;34.75;99736.14;2169098;81;20936;-78
2022/07/18 11:09:36;;;;;;;5.33;2.10;;;;;;;26.20;33.92;99730.35;2168882;81;21316;-79
2022/07/18 11:12:36;;;;;;;3.30;1.90;;;;;;;26.10;34.96;99727.61;2168606;81;20965;-79
2022/07/18 11:15:37;;;;;;;2.90;2.20;;;;;;;26.33;34.84;99731.20;2169534;81;20904;-79
2022/07/18 11:18:37;;;;;;;2.25;1.80;;;;;;;26.59;35.43;99718.59;2169818;81;20948;-79
2022/07/18 11:21:38;;;;;;;3.77;2.00;;;;;;;26.60;33.80;99720.34;2170588;81;21639;-79
2022/07/18 11:24:38;;;;;;;14.45;3.67;;;;;;;26.40;33.87;99713.09;2169701;81;20948;-79
2022/07/18 11:27:38;;;;;;;3.08;2.00;;;;;;;26.61;35.37;99701.54;2170614;81;20866;-78
2022/07/18 11:30:39;;;;;;;4.65;2.08;;;;;;;27.03;34.79;99702.13;2171410;82;20910;-79
2022/07/18 11:33:39;;;;;;;2.58;2.05;;;;;;;27.04;33.57;99698.51;2170891;82;20877;-78
2022/07/18 11:36:40;;;;;;;2.58;1.95;;;;;;;27.13;33.47;99694.10;2169673;81;21226;-79
2022/07/18 11:39:40;;;;;;;6.03;2.25;;;;;;;27.23;33.70;99690.09;2170758;81;20903;-80
2022/07/18 11:42:41;;;;;;;3.02;1.80;;;;;;;27.38;32.81;99693.05;2171518;81;20902;-80
2022/07/18 11:45:41;;;;;;;6.15;2.05;;;;;;;27.50;33.09;99684.47;2170787;81;20909;-80
2022/07/18 11:48:41;;;;;;;2.27;1.98;;;;;;;27.29;32.35;99681.78;2170756;82;20902;-80
2022/07/18 11:51:42;;;;;;;3.17;1.80;;;;;;;27.59;31.56;99681.38;2169286;81;21689;-79
2022/07/18 11:54:42;;;;;;;1.70;1.60;;;;;;;27.28;32.21;99677.83;2170054;81;21293;-79
2022/07/18 11:57:43;;;;;;;8.55;2.08;;;;;;;26.96;33.57;99681.37;2171218;81;20925;-80
2022/07/18 12:00:43;;;;;;;6.70;2.10;;;;;;;27.06;33.33;99679.22;2171561;82;20905;-81
2022/07/18 12:03:44;;;;;;;6.40;1.90;;;;;;;26.98;32.79;99675.12;2172309;81;20949;-79
2022/07/18 12:06:44;;;;;;;2.37;1.87;;;;;;;26.75;33.49;99667.97;2171069;81;21037;-79
2022/07/18 12:09:44;;;;;;;2.50;1.80;;;;;;;26.88;33.67;99670.11;2170550;81;20933;-78
2022/07/18 12:12:45;;;;;;;2.05;1.60;;;;;;;27.01;32.56;99670.50;2170061;81;20913;-79
2022/07/18 12:15:45;;;;;;;2.40;1.82;;;;;;;26.95;32.75;99672.06;2170013;81;20921;-80
2022/07/18 12:18:45;;;;;;;3.92;1.98;;;;;;;27.01;32.95;99674.52;2168670;81;20964;-81
2022/07/18 12:21:46;;;;;;;2.90;2.00;;;;;;;27.06;33.50;99669.84;2169268;81;20980;-79
2022/07/18 12:24:46;;;;;;;2.50;2.00;;;;;;;27.25;32.54;99678.84;2169223;81;20960;-81
2022/07/18 12:27:47;;;;;;;2.17;1.80;;;;;;;27.18;32.24;99672.47;2168466;81;20984;-81
2022/07/18 12:30:47;;;;;;;3.62;1.80;;;;;;;27.19;33.76;99669.72;2169415;82;20961;-81
2022/07/18 12:33:48;;;;;;;3.42;1.72;;;;;;;27.37;32.45;99668.05;2168650;81;21282;-80
2022/07/18 12:36:50;;;;;;;1.93;1.77;;;;;;;27.05;32.30;99667.23;2158761;82;21000;-80
2022/07/18 12:39:50;;;;;;;3.62;2.25;;;;;;;26.82;32.65;99670.80;2168305;81;21380;-81
2022/07/18 12:42:51;;;;;;;3.33;1.77;;;;;;;26.88;33.28;99667.44;2168814;81;20918;-81
2022/07/18 12:45:51;;;;;;;6.45;2.42;;;;;;;26.85;34.14;99666.66;2169784;82;21029;-81
2022/07/18 12:48:52;;;;;;;4.08;2.10;;;;;;;26.85;34.14;99666.66;2169317;81;21277;-80
2022/07/18 12:51:52;;;;;;;2.72;2.10;;;;;;;26.73;33.82;99665.83;2170049;81;21393;-81
2022/07/18 12:54:52;;;;;;;5.20;2.42;;;;;;;26.66;34.17;99663.39;2170820;81;20921;-81
2022/07/18 12:57:53;;;;;;;2.25;1.70;;;;;;;26.57;33.24;99668.25;2170121;81;20897;-80
2022/07/18 13:00:56;;;;;;;3.47;1.95;;;;;;;26.57;33.24;99668.25;2170646;81;21348;-81
2022/07/18 13:03:54;;;;;;;2.70;1.87;;;;;;;26.46;34.70;99661.12;2170770;80;21691;-81
2022/07/18 13:06:54;;;;;;;4.80;2.05;;;;;;;26.76;34.88;99653.17;2169805;81;20969;-81
2022/07/18 13:09:54;;;;;;;5.25;4.45;;;;;;;27.06;33.89;99659.13;2168118;82;20890;-81
2022/07/18 13:12:55;;;;;;;36.50;4.65;;;;;;;27.13;33.43;99653.03;2168611;81;20962;-79
2022/07/18 13:15:55;;;;;;;5.17;1.80;;;;;;;27.17;34.10;99656.85;2168741;81;20941;-79
2022/07/18 13:18:56;;;;;;;2.00;1.80;;;;;;;27.50;32.42;99650.48;2169332;81;20961;-80
2022/07/18 13:21:57;;;;;;;2.87;1.90;;;;;;;27.66;32.44;99643.13;2169710;81;20917;-79
2022/07/18 13:24:59;;;;;;;;;;;;;;;28.32;33.11;99632.45;2172714;82;20929;-79
2022/07/18 13:28:00;;;;;;;5.17;1.90;;;;;;;28.79;31.23;99635.98;2170077;82;20093;-79
2022/07/18 13:31:01;;;;;;;3.83;1.70;;;;;;;28.76;31.79;99634.80;2170043;81;20902;-81
2022/07/18 13:34:00;;;;;;;3.22;2.20;;;;;;;28.55;29.78;99633.55;2170098;81;20945;-82
2022/07/18 13:37:01;;;;;;;7.40;2.10;;;;;;;28.12;31.03;99625.32;2170215;81;20999;-80
2022/07/18 13:40:01;;;;;;;5.70;1.80;;;;;;;27.73;31.52;99622.66;2169798;81;21344;-81
2022/07/18 13:43:02;;;;;;;7.40;2.00;;;;;;;27.98;31.50;99621.55;2169476;81;21004;-79
2022/07/18 13:46:02;;;;;;;2.92;2.12;;;;;;;27.95;31.77;99613.64;2170039;81;21007;-81
2022/07/18 13:49:03;;;;;;;2.40;1.90;;;;;;;28.09;31.22;99620.10;2170419;81;20941;-80
2022/07/18 13:52:03;;;;;;;2.30;1.80;;;;;;;28.10;32.34;99616.95;2170803;81;20885;-80
2022/07/18 13:55:03;;;;;;;17.73;2.80;;;;;;;28.45;31.23;99610.77;2170728;81;20929;-79
2022/07/18 13:58:04;;;;;;;2.92;1.80;;;;;;;28.28;31.27;99616.57;2170676;81;20909;-80
2022/07/18 14:01:04;;;;;;;2.42;1.92;;;;;;;28.28;31.27;99616.57;2170506;82;20925;-79
2022/07/18 14:04:05;;;;;;;5.53;2.00;;;;;;;28.12;32.30;99612.37;2170610;81;21556;-81
2022/07/18 14:07:06;;;;;;;10.30;2.42;;;;;;;28.26;33.08;99604.56;2170046;81;21011;-81
2022/07/18 14:10:05;;;;;;;5.58;2.00;;;;;;;28.62;32.99;99613.13;2170687;81;20913;-80
2022/07/18 14:13:06;;;;;;;1.95;1.80;;;;;;;28.70;32.66;99604.22;2171644;81;20952;-80